Forside
METAR-TAF:

METAR-TAF

Lufthavne :

Carbon County Regional Airport (Buck Davis Field)

Price, Utah, USA

Breddekreds: 39-36-33N, længdekreds: 110-45-17W, højde: 1805 m

Aktuelle vejr

Denne rapport blev lavet for 28 minutter siden, kl. 06:53 UTC
Vind 8 kt fra nordnordøst
Temperatur 1°C
Fugtighed 55%
Tryk 1022 hPa
Sigt: 16.1 km
skyfri

METAR: KPUC 290653Z AUTO 02008KT 10SM CLR 01/M07 A3019 RMK AO2 SLP237 T00061067 401001056

Tid: 00:21 (07:21 UTC)


TAF: fraværende

Vejrobservationer og prognoser fra mere end 4000 lufthavne (METAR og TAF).

De gule og røde prikker repræsenterer de meteorologiske stationer.

Flyt musen over at se navnet på stationen.

Så klik over at se vejr observationer og prognoser.

At skifte det kort: Klik på de grønne knapper med et sort kors for at zoome ind; på den grønne knap med en bindestreg for at zoome ud; eller på de grønne pile for tilstødende kort.


METAR-TAF: